Time;durP1;ratioP1;P1;durP2;ratioP2;P2;SDS_P1;SDS_P2;PMS_P1;PMS_P2;Temp;Humidity;BMP_temperature;BMP_pressure;BME280_temperature;BME280_humidity;BME280_pressure;Samples;Min_cycle;Max_cycle;Signal;HPM_P1;HPM_P2
2022/02/02 00:01:01;;;;;;;;;83.25;63.00;;;;;;;;5073285;27;51464;-50
2022/02/02 00:03:51;;;;;;;;;81.75;56.50;;;;;;;;5069880;27;51165;-48
2022/02/02 00:06:42;;;;;;;;;82.25;58.50;;;;;;;;5076676;27;51144;-46
2022/02/02 00:09:27;;;;;;;;;99.25;69.25;;;;;;;;5068714;27;51470;-47
2022/02/02 00:12:49;;;;;;;;;82.00;63.50;;;;;;;;5062233;27;51149;-47
2022/02/02 00:18:47;;;;;;;;;95.25;70.75;;;;;;;;5074012;27;52174;-50
2022/02/02 00:24:30;;;;;;;;;106.00;77.25;;;;;;;;5062028;27;51039;-48
2022/02/02 00:27:17;;;;;;;;;99.75;75.00;;;;;;;;5065115;27;51540;-51
2022/02/02 00:30:04;;;;;;;;;99.00;75.75;;;;;;;;5070265;27;51111;-50
2022/02/02 00:35:40;;;;;;;;;102.00;85.25;;;;;;;;5067446;27;51436;-47
2022/02/02 00:38:24;;;;;;;;;105.25;78.50;;;;;;;;5066549;27;51100;-46
2022/02/02 00:41:09;;;;;;;;;103.25;85.50;;;;;;;;5062209;28;51113;-46
2022/02/02 00:43:59;;;;;;;;;99.00;73.75;;;;;;;;5061241;28;51090;-45
2022/02/02 00:46:43;;;;;;;;;112.75;83.25;;;;;;;;5079207;27;51011;-47
2022/02/02 00:49:28;;;;;;;;;114.00;85.25;;;;;;;;5080483;27;51128;-48
2022/02/02 00:52:12;;;;;;;;;103.00;83.75;;;;;;;;5071006;27;51144;-49
2022/02/02 00:54:56;;;;;;;;;112.50;88.50;;;;;;;;5061049;28;51166;-50
2022/02/02 00:57:41;;;;;;;;;115.00;85.75;;;;;;;;5061688;27;51166;-48
2022/02/02 01:00:25;;;;;;;;;118.25;93.75;;;;;;;;5064179;27;51048;-47
2022/02/02 01:03:10;;;;;;;;;120.00;94.25;;;;;;;;5061089;28;51461;-52
2022/02/02 01:05:54;;;;;;;;;119.25;97.75;;;;;;;;5061680;28;51377;-46
2022/02/02 01:20:04;;;;;;;;;107.50;89.75;;;;;;;;5061760;27;51144;-46
2022/02/02 01:28:55;;;;;;;;;142.50;110.25;;;;;;;;5077282;27;51078;-51
2022/02/02 01:31:39;;;;;;;;;128.50;108.00;;;;;;;;5067729;27;51126;-46
2022/02/02 01:34:24;;;;;;;;;136.75;113.75;;;;;;;;5065298;27;51100;-49
2022/02/02 01:37:09;;;;;;;;;129.75;104.00;;;;;;;;5072424;27;51196;-49
2022/02/02 01:40:04;;;;;;;;;137.00;113.00;;;;;;;;5064416;27;51336;-50
2022/02/02 01:42:55;;;;;;;;;149.75;118.00;;;;;;;;5061298;27;51144;-51
2022/02/02 01:45:44;;;;;;;;;143.75;113.75;;;;;;;;5076741;27;51351;-47
2022/02/02 01:48:45;;;;;;;;;140.75;107.75;;;;;;;;5077285;27;51113;-46
2022/02/02 01:57:51;;;;;;;;;122.75;100.25;;;;;;;;5060024;28;51023;-46
2022/02/02 02:00:33;;;;;;;;;124.00;99.00;;;;;;;;5077843;27;51046;-46
2022/02/02 02:03:17;;;;;;;;;120.00;100.00;;;;;;;;5063029;27;51543;-46
2022/02/02 02:06:02;;;;;;;;;124.75;100.25;;;;;;;;5077139;27;51167;-51
2022/02/02 02:08:46;;;;;;;;;126.50;101.25;;;;;;;;5067428;27;51411;-48
2022/02/02 02:11:31;;;;;;;;;120.50;92.75;;;;;;;;5075062;27;51244;-50
2022/02/02 02:17:00;;;;;;;;;117.00;95.25;;;;;;;;5075020;27;51515;-47
2022/02/02 02:19:49;;;;;;;;;121.25;100.75;;;;;;;;5059802;28;51083;-50
2022/02/02 02:22:37;;;;;;;;;118.50;97.25;;;;;;;;5077501;27;51369;-49
2022/02/02 02:25:23;;;;;;;;;124.50;95.00;;;;;;;;5062205;27;51250;-47
2022/02/02 02:28:20;;;;;;;;;121.25;95.00;;;;;;;;5063383;27;51079;-46
2022/02/02 02:34:36;;;;;;;;;115.50;93.50;;;;;;;;5051981;27;51082;-49
2022/02/02 03:55:28;;;;;;;;;151.00;127.75;;;;;;;;5065336;27;51486;-47
2022/02/02 03:58:24;;;;;;;;;138.25;113.50;;;;;;;;5064949;27;51172;-51
2022/02/02 04:06:59;;;;;;;;;143.75;122.00;;;;;;;;5069311;27;51186;-47
2022/02/02 04:09:45;;;;;;;;;142.25;115.25;;;;;;;;5066246;27;51090;-48
2022/02/02 04:12:44;;;;;;;;;150.00;120.75;;;;;;;;5069854;27;51166;-46
2022/02/02 04:51:52;;;;;;;;;154.75;128.75;;;;;;;;5065212;27;51146;-49
2022/02/02 04:54:46;;;;;;;;;162.00;140.00;;;;;;;;5067647;27;51523;-49
2022/02/02 05:06:53;;;;;;;;;170.50;141.75;;;;;;;;5062659;27;51053;-52
2022/02/02 05:09:53;;;;;;;;;146.00;117.75;;;;;;;;5065120;27;51115;-48
2022/02/02 05:13:32;;;;;;;;;151.00;127.25;;;;;;;;5062848;27;51042;-48
2022/02/02 05:16:36;;;;;;;;;160.25;127.50;;;;;;;;5064639;27;51309;-49
2022/02/02 05:51:21;;;;;;;;;154.75;127.50;;;;;;;;5059798;28;51120;-52
2022/02/02 05:54:06;;;;;;;;;146.25;131.25;;;;;;;;5073116;27;51044;-52
2022/02/02 05:56:52;;;;;;;;;161.00;129.75;;;;;;;;5079603;27;51188;-51
2022/02/02 05:59:37;;;;;;;;;171.75;139.00;;;;;;;;5080136;27;51069;-52
2022/02/02 06:02:29;;;;;;;;;162.50;132.00;;;;;;;;5070751;27;52657;-48
2022/02/02 06:05:13;;;;;;;;;167.50;133.75;;;;;;;;5079135;27;51045;-50
2022/02/02 06:07:59;;;;;;;;;165.00;142.75;;;;;;;;5063512;27;51168;-51
2022/02/02 06:10:44;;;;;;;;;178.00;152.50;;;;;;;;5076636;27;51209;-49
2022/02/02 06:13:38;;;;;;;;;174.50;142.00;;;;;;;;5075192;27;51087;-53
2022/02/02 06:16:24;;;;;;;;;159.75;135.50;;;;;;;;5065204;27;51265;-52
2022/02/02 06:19:08;;;;;;;;;183.25;143.75;;;;;;;;5067654;27;51150;-51
2022/02/02 06:22:05;;;;;;;;;180.75;148.50;;;;;;;;5060618;27;51311;-50
2022/02/02 06:24:52;;;;;;;;;165.75;138.50;;;;;;;;5059710;27;52247;-54
2022/02/02 06:27:37;;;;;;;;;167.75;140.50;;;;;;;;5078408;27;51053;-53
2022/02/02 06:30:22;;;;;;;;;179.50;144.50;;;;;;;;5066778;27;51089;-54
2022/02/02 06:33:09;;;;;;;;;172.00;143.75;;;;;;;;5075739;27;51114;-51
2022/02/02 06:35:55;;;;;;;;;175.75;142.00;;;;;;;;5078576;27;51237;-47
2022/02/02 06:38:39;;;;;;;;;171.50;148.75;;;;;;;;5077885;27;51275;-51
2022/02/02 06:41:28;;;;;;;;;170.00;139.50;;;;;;;;5078624;27;51458;-51
2022/02/02 06:44:13;;;;;;;;;166.25;144.50;;;;;;;;5075151;27;51090;-49
2022/02/02 06:46:58;;;;;;;;;161.50;124.50;;;;;;;;5059816;28;51132;-52
2022/02/02 06:49:45;;;;;;;;;176.25;141.50;;;;;;;;5066244;28;51372;-47
2022/02/02 06:52:37;;;;;;;;;174.00;145.50;;;;;;;;5075750;28;51561;-49
2022/02/02 06:55:33;;;;;;;;;159.00;142.75;;;;;;;;5078571;28;51207;-47
2022/02/02 06:58:33;;;;;;;;;170.50;130.75;;;;;;;;5065173;28;51264;-51
2022/02/02 07:08:17;;;;;;;;;160.25;136.50;;;;;;;;5066193;28;51190;-46
2022/02/02 07:20:27;;;;;;;;;200.50;167.50;;;;;;;;5077520;27;51197;-50
2022/02/02 07:25:49;;;;;;;;;195.50;162.00;;;;;;;;5083069;27;51122;-54
2022/02/02 07:31:32;;;;;;;;;185.50;158.50;;;;;;;;5078197;27;51072;-50
2022/02/02 07:34:46;;;;;;;;;180.00;151.00;;;;;;;;5063073;27;51617;-55
2022/02/02 07:37:33;;;;;;;;;190.25;157.50;;;;;;;;5052548;27;51073;-54
2022/02/02 07:42:56;;;;;;;;;187.00;151.25;;;;;;;;4788136;22;52719;-52
2022/02/02 07:45:41;;;;;;;;;161.75;139.00;;;;;;;;5042054;28;51131;-47
2022/02/02 07:48:26;;;;;;;;;181.50;146.50;;;;;;;;5054475;28;51174;-52
2022/02/02 07:51:10;;;;;;;;;164.50;132.25;;;;;;;;5056375;28;51106;-49
2022/02/02 07:53:58;;;;;;;;;153.25;130.00;;;;;;;;5062066;28;51024;-47
2022/02/02 07:56:44;;;;;;;;;156.50;128.25;;;;;;;;5062037;28;51154;-55
2022/02/02 08:05:39;;;;;;;;;163.50;129.75;;;;;;;;5049921;28;51164;-52
2022/02/02 08:08:30;;;;;;;;;165.50;133.50;;;;;;;;5062280;28;51196;-48
2022/02/02 08:11:14;;;;;;;;;153.75;127.50;;;;;;;;5052737;28;51500;-46
2022/02/02 08:14:01;;;;;;;;;138.00;118.50;;;;;;;;5061870;28;51156;-53
2022/02/02 08:16:45;;;;;;;;;120.50;94.75;;;;;;;;5061256;28;51172;-49
2022/02/02 08:19:30;;;;;;;;;125.00;107.00;;;;;;;;5061402;28;51098;-51
2022/02/02 08:22:14;;;;;;;;;110.75;91.25;;;;;;;;5050532;28;51032;-48
2022/02/02 08:24:59;;;;;;;;;101.00;82.25;;;;;;;;5061162;28;51909;-46
2022/02/02 08:27:46;;;;;;;;;113.25;87.50;;;;;;;;5052840;28;51442;-50
2022/02/02 08:30:30;;;;;;;;;120.00;99.25;;;;;;;;5054442;28;51007;-47
2022/02/02 08:33:19;;;;;;;;;106.25;81.25;;;;;;;;5061459;28;51030;-46
2022/02/02 08:36:08;;;;;;;;;97.25;77.25;;;;;;;;5061085;28;51440;-49
2022/02/02 08:41:46;;;;;;;;;128.50;112.00;;;;;;;;5057994;28;51249;-46
2022/02/02 08:44:43;;;;;;;;;128.00;107.75;;;;;;;;5046785;28;51195;-53
2022/02/02 08:47:27;;;;;;;;;147.00;118.25;;;;;;;;5058869;28;51035;-46
2022/02/02 08:50:11;;;;;;;;;149.75;121.50;;;;;;;;5060658;28;51367;-50
2022/02/02 08:53:02;;;;;;;;;143.00;118.50;;;;;;;;5051543;28;51213;-48
2022/02/02 09:01:24;;;;;;;;;157.50;128.75;;;;;;;;5060291;28;51146;-50
2022/02/02 09:07:12;;;;;;;;;143.00;112.75;;;;;;;;5047911;28;51438;-48
2022/02/02 09:10:08;;;;;;;;;133.00;113.75;;;;;;;;5053611;28;51231;-50
2022/02/02 09:36:41;;;;;;;;;113.25;98.00;;;;;;;;5053205;28;51332;-45
2022/02/02 09:39:33;;;;;;;;;113.00;94.25;;;;;;;;5054481;28;52290;-46
2022/02/02 09:42:20;;;;;;;;;109.00;93.75;;;;;;;;5058611;28;51544;-48
2022/02/02 09:45:10;;;;;;;;;116.25;97.00;;;;;;;;5056054;28;51134;-48
2022/02/02 09:47:59;;;;;;;;;112.00;93.75;;;;;;;;5058030;28;51322;-48
2022/02/02 09:50:49;;;;;;;;;109.50;89.50;;;;;;;;5058547;28;51043;-47
2022/02/02 09:53:42;;;;;;;;;112.25;95.25;;;;;;;;5055177;28;51493;-48
2022/02/02 09:59:48;;;;;;;;;121.50;99.25;;;;;;;;5056750;28;51395;-45
2022/02/02 10:05:57;;;;;;;;;114.00;96.75;;;;;;;;5053925;28;51094;-45
2022/02/02 10:14:27;;;;;;;;;116.25;100.00;;;;;;;;5057607;28;51200;-50
2022/02/02 10:17:12;;;;;;;;;102.50;78.75;;;;;;;;5058978;28;51169;-50
2022/02/02 10:19:57;;;;;;;;;120.75;98.50;;;;;;;;5059379;28;51367;-46
2022/02/02 10:22:45;;;;;;;;;110.50;94.50;;;;;;;;5050396;28;51153;-46
2022/02/02 10:25:29;;;;;;;;;112.75;94.00;;;;;;;;5052053;28;51254;-46
2022/02/02 10:28:18;;;;;;;;;111.75;91.75;;;;;;;;5058840;28;51168;-45
2022/02/02 10:31:04;;;;;;;;;114.75;91.75;;;;;;;;5059296;28;51157;-45
2022/02/02 10:33:48;;;;;;;;;104.75;93.50;;;;;;;;5057173;28;51400;-45
2022/02/02 10:36:32;;;;;;;;;127.00;102.00;;;;;;;;5055106;28;51473;-46
2022/02/02 10:39:19;;;;;;;;;111.25;89.25;;;;;;;;5058902;28;51121;-49
2022/02/02 10:42:03;;;;;;;;;121.00;99.50;;;;;;;;5058312;28;51193;-46
2022/02/02 10:44:52;;;;;;;;;115.50;94.25;;;;;;;;5053697;28;51339;-46
2022/02/02 10:47:39;;;;;;;;;111.25;87.50;;;;;;;;5055933;28;51028;-45
2022/02/02 10:51:15;;;;;;;;;108.25;91.50;;;;;;;;5058247;28;51499;-48
2022/02/02 10:59:26;;;;;;;;;112.50;93.25;;;;;;;;5058854;28;51425;-49
2022/02/02 11:08:16;;;;;;;;;116.25;92.25;;;;;;;;5059405;28;51055;-52
2022/02/02 11:11:00;;;;;;;;;106.75;87.00;;;;;;;;5058145;28;51040;-52
2022/02/02 11:13:52;;;;;;;;;114.50;89.50;;;;;;;;5039557;28;51166;-53
2022/02/02 11:16:38;;;;;;;;;92.50;82.00;;;;;;;;5052993;28;51178;-50
2022/02/02 11:19:23;;;;;;;;;108.50;84.00;;;;;;;;5056937;28;51124;-53
2022/02/02 11:22:30;;;;;;;;;107.75;86.25;;;;;;;;5048333;28;51101;-54
2022/02/02 11:25:15;;;;;;;;;96.25;81.00;;;;;;;;5048618;28;51093;-46
2022/02/02 11:28:00;;;;;;;;;109.25;88.25;;;;;;;;5058614;28;51379;-48
2022/02/02 11:30:44;;;;;;;;;98.75;82.75;;;;;;;;5049321;28;51125;-54
2022/02/02 11:33:28;;;;;;;;;93.25;82.50;;;;;;;;5054525;28;51123;-51
2022/02/02 11:36:39;;;;;;;;;99.00;80.75;;;;;;;;5038803;28;51006;-48
2022/02/02 11:39:43;;;;;;;;;103.00;79.75;;;;;;;;5041514;28;51142;-49
2022/02/02 11:42:55;;;;;;;;;87.25;66.00;;;;;;;;5053254;28;51067;-50
2022/02/02 11:45:42;;;;;;;;;78.25;72.50;;;;;;;;5044202;28;51154;-51
2022/02/02 11:48:53;;;;;;;;;101.50;88.25;;;;;;;;5051434;28;51107;-49
2022/02/02 11:51:47;;;;;;;;;98.25;80.75;;;;;;;;5049262;28;51102;-51
2022/02/02 11:54:31;;;;;;;;;103.75;84.50;;;;;;;;5054452;28;51478;-50
2022/02/02 11:57:20;;;;;;;;;94.25;80.50;;;;;;;;5057099;28;51059;-49
2022/02/02 12:00:19;;;;;;;;;103.50;87.75;;;;;;;;5039920;28;51476;-51
2022/02/02 12:06:18;;;;;;;;;105.75;86.50;;;;;;;;5057335;28;51039;-49
2022/02/02 12:09:18;;;;;;;;;117.00;89.75;;;;;;;;5053801;28;51479;-51
2022/02/02 12:27:46;;;;;;;;;113.50;91.75;;;;;;;;5053731;28;51498;-49
2022/02/02 12:44:57;;;;;;;;;102.50;84.75;;;;;;;;5054487;28;51167;-50
2022/02/02 12:49:02;;;;;;;;;106.00;88.25;;;;;;;;5050747;28;51133;-49
2022/02/02 12:57:59;;;;;;;;;103.25;87.50;;;;;;;;5056726;28;51449;-51
2022/02/02 13:03:30;;;;;;;;;100.25;85.50;;;;;;;;5055991;28;51063;-48
2022/02/02 13:06:23;;;;;;;;;109.00;85.25;;;;;;;;5039260;28;51184;-54
2022/02/02 13:09:08;;;;;;;;;85.25;64.75;;;;;;;;5051888;28;51337;-53
2022/02/02 13:11:56;;;;;;;;;112.00;89.00;;;;;;;;5044871;28;51107;-51
2022/02/02 13:14:55;;;;;;;;;99.75;80.25;;;;;;;;5042813;28;51620;-56
2022/02/02 13:17:40;;;;;;;;;102.75;87.25;;;;;;;;5056108;28;51141;-49
2022/02/02 13:20:56;;;;;;;;;96.75;89.00;;;;;;;;5058084;28;51126;-53
2022/02/02 13:29:42;;;;;;;;;106.00;83.25;;;;;;;;5048386;28;51530;-51
2022/02/02 13:32:46;;;;;;;;;106.75;85.25;;;;;;;;5059431;28;51090;-52
2022/02/02 13:35:38;;;;;;;;;114.75;91.50;;;;;;;;5060176;28;51015;-48
2022/02/02 13:38:37;;;;;;;;;107.50;87.25;;;;;;;;5060122;28;51129;-55
2022/02/02 13:44:45;;;;;;;;;102.00;81.25;;;;;;;;5050862;28;51071;-50
2022/02/02 13:57:43;;;;;;;;;97.25;78.00;;;;;;;;5051392;28;51597;-49
2022/02/02 14:32:11;;;;;;;;;103.25;78.75;;;;;;;;5051300;28;51197;-49
2022/02/02 14:34:55;;;;;;;;;104.50;79.00;;;;;;;;5059158;28;51439;-54
2022/02/02 14:37:42;;;;;;;;;86.75;75.50;;;;;;;;5058900;28;51077;-54
2022/02/02 14:40:39;;;;;;;;;92.50;76.00;;;;;;;;5056079;28;52649;-51
2022/02/02 14:43:33;;;;;;;;;89.50;73.25;;;;;;;;5059008;28;51556;-52
2022/02/02 14:46:22;;;;;;;;;95.25;76.50;;;;;;;;5055569;28;51155;-49
2022/02/02 14:49:11;;;;;;;;;95.50;76.00;;;;;;;;5050685;28;51501;-46
2022/02/02 14:55:14;;;;;;;;;98.00;80.50;;;;;;;;5055898;28;51343;-50
2022/02/02 15:28:19;;;;;;;;;90.75;71.75;;;;;;;;5058832;28;51395;-50
2022/02/02 15:31:04;;;;;;;;;86.25;68.75;;;;;;;;5058192;28;51093;-51
2022/02/02 15:33:52;;;;;;;;;76.25;66.75;;;;;;;;5058263;28;51059;-45
2022/02/02 15:39:42;;;;;;;;;77.50;65.00;;;;;;;;5061451;28;51174;-49
2022/02/02 15:54:46;;;;;;;;;81.00;70.00;;;;;;;;5060451;28;51195;-51
2022/02/02 15:58:10;;;;;;;;;80.50;65.75;;;;;;;;5061492;28;51095;-50
2022/02/02 16:03:36;;;;;;;;;75.00;59.75;;;;;;;;5045076;28;51084;-54
2022/02/02 16:06:23;;;;;;;;;72.50;59.00;;;;;;;;5059526;28;51193;-53
2022/02/02 16:09:20;;;;;;;;;77.75;64.25;;;;;;;;5056634;28;51011;-52
2022/02/02 16:15:00;;;;;;;;;75.75;60.75;;;;;;;;5061307;28;51494;-49
2022/02/02 16:36:35;;;;;;;;;71.75;57.50;;;;;;;;5061250;28;51184;-52
2022/02/02 16:39:24;;;;;;;;;72.75;61.25;;;;;;;;5061550;28;51126;-46
2022/02/02 16:45:12;;;;;;;;;72.25;57.00;;;;;;;;5061102;28;50945;-56
2022/02/02 16:47:57;;;;;;;;;72.75;59.25;;;;;;;;5048390;28;51107;-49
2022/02/02 16:50:44;;;;;;;;;78.50;64.25;;;;;;;;5055313;28;51129;-50
2022/02/02 16:53:41;;;;;;;;;76.50;63.75;;;;;;;;5061572;28;51078;-46
2022/02/02 17:35:40;;;;;;;;;77.25;63.00;;;;;;;;5043647;28;51595;-52
2022/02/02 17:38:34;;;;;;;;;73.25;60.75;;;;;;;;5039665;28;51079;-49
2022/02/02 17:41:52;;;;;;;;;73.00;59.75;;;;;;;;5040622;28;51091;-53
2022/02/02 17:44:59;;;;;;;;;76.25;60.50;;;;;;;;5043132;28;51158;-53
2022/02/02 18:20:53;;;;;;;;;61.75;45.50;;;;;;;;5059071;28;51219;-48
2022/02/02 18:23:50;;;;;;;;;76.00;59.75;;;;;;;;5058469;28;51261;-53
2022/02/02 18:26:45;;;;;;;;;74.25;58.00;;;;;;;;5058535;28;51165;-51
2022/02/02 18:29:44;;;;;;;;;72.00;52.25;;;;;;;;5058551;28;51323;-56
2022/02/02 18:32:42;;;;;;;;;71.50;54.75;;;;;;;;5043216;28;51160;-55
2022/02/02 18:35:33;;;;;;;;;67.25;49.50;;;;;;;;5049532;28;51362;-49
2022/02/02 18:42:23;;;;;;;;;75.75;58.75;;;;;;;;5038083;28;51052;-54
2022/02/02 18:59:52;;;;;;;;;76.25;58.50;;;;;;;;5058094;28;51214;-53
2022/02/02 20:02:16;;;;;;;;;67.25;52.00;;;;;;;;5061943;28;51054;-53
2022/02/02 20:05:18;;;;;;;;;75.50;53.50;;;;;;;;5061823;28;51211;-53
2022/02/02 20:08:17;;;;;;;;;72.50;51.75;;;;;;;;5057280;28;51544;-53
2022/02/02 20:11:06;;;;;;;;;69.00;49.75;;;;;;;;5038324;28;51100;-52
2022/02/02 20:13:50;;;;;;;;;69.75;49.50;;;;;;;;5061432;28;51076;-52
2022/02/02 20:16:35;;;;;;;;;75.25;58.50;;;;;;;;5059751;28;51149;-52
2022/02/02 20:19:19;;;;;;;;;70.75;52.00;;;;;;;;5045825;28;51009;-53
2022/02/02 20:22:05;;;;;;;;;72.25;51.75;;;;;;;;5061413;28;51609;-54
2022/02/02 20:24:56;;;;;;;;;72.00;54.50;;;;;;;;5059836;28;51138;-52
2022/02/02 20:27:41;;;;;;;;;69.00;51.75;;;;;;;;5060913;28;51125;-51
2022/02/02 20:30:25;;;;;;;;;72.75;52.50;;;;;;;;5060796;28;51463;-53
2022/02/02 20:33:09;;;;;;;;;71.50;55.25;;;;;;;;5061115;28;51086;-55
2022/02/02 20:35:55;;;;;;;;;72.50;51.50;;;;;;;;5060960;28;51190;-55
2022/02/02 20:38:40;;;;;;;;;79.25;55.00;;;;;;;;5061064;28;51117;-56
2022/02/02 20:41:25;;;;;;;;;73.50;52.50;;;;;;;;5060313;28;51437;-53
2022/02/02 20:44:19;;;;;;;;;71.25;51.25;;;;;;;;5053884;28;51118;-55
2022/02/02 21:00:14;;;;;;;;;67.25;49.00;;;;;;;;5047276;28;51199;-51
2022/02/02 21:08:23;;;;;;;;;71.00;52.25;;;;;;;;5042781;28;51161;-56
2022/02/02 21:11:18;;;;;;;;;65.25;48.50;;;;;;;;5039791;28;51141;-52
2022/02/02 21:14:03;;;;;;;;;70.00;50.50;;;;;;;;5040229;28;52006;-55
2022/02/02 21:16:47;;;;;;;;;73.25;50.25;;;;;;;;5039594;28;51461;-56
2022/02/02 21:19:43;;;;;;;;;69.25;50.25;;;;;;;;5040422;28;51185;-53
2022/02/02 21:22:31;;;;;;;;;69.00;51.00;;;;;;;;5039623;28;51143;-55
2022/02/02 21:25:42;;;;;;;;;73.50;52.50;;;;;;;;5039963;28;51591;-52
2022/02/02 21:28:20;;;;;;;;;69.75;50.25;;;;;;;;5040672;28;51059;-52
2022/02/02 21:31:05;;;;;;;;;66.50;46.50;;;;;;;;5039833;28;51132;-55
2022/02/02 21:33:50;;;;;;;;;73.00;52.00;;;;;;;;5038997;28;51457;-54
2022/02/02 21:36:35;;;;;;;;;72.50;51.00;;;;;;;;5039222;28;51032;-53
2022/02/02 21:39:21;;;;;;;;;68.75;51.25;;;;;;;;5039550;28;51242;-51
2022/02/02 21:42:06;;;;;;;;;65.25;47.50;;;;;;;;5041816;28;51281;-54
2022/02/02 21:44:50;;;;;;;;;70.00;52.00;;;;;;;;5039604;28;51258;-55
2022/02/02 21:47:34;;;;;;;;;71.75;51.25;;;;;;;;5039319;28;51586;-52
2022/02/02 21:50:20;;;;;;;;;64.25;48.25;;;;;;;;5039203;28;51172;-53
2022/02/02 21:53:04;;;;;;;;;71.25;48.75;;;;;;;;5039095;28;51082;-53
2022/02/02 21:55:49;;;;;;;;;67.50;48.25;;;;;;;;5041758;28;51247;-53
2022/02/02 21:58:33;;;;;;;;;71.00;52.00;;;;;;;;5039061;28;51107;-52
2022/02/02 22:01:18;;;;;;;;;70.00;51.00;;;;;;;;5038798;28;51169;-52
2022/02/02 22:04:02;;;;;;;;;70.50;47.75;;;;;;;;5039271;28;51138;-54
2022/02/02 22:06:46;;;;;;;;;72.25;53.75;;;;;;;;5041471;28;51139;-52
2022/02/02 22:09:31;;;;;;;;;61.75;42.50;;;;;;;;5038876;28;51573;-54
2022/02/02 22:12:15;;;;;;;;;72.25;50.75;;;;;;;;5038384;28;51415;-55
2022/02/02 22:15:00;;;;;;;;;70.75;53.25;;;;;;;;5038658;28;51135;-55
2022/02/02 22:17:45;;;;;;;;;55.75;44.00;;;;;;;;5038614;28;51120;-55
2022/02/02 22:20:33;;;;;;;;;68.50;51.00;;;;;;;;5039138;28;51186;-54
2022/02/02 22:23:17;;;;;;;;;71.75;51.50;;;;;;;;5038607;28;51074;-53
2022/02/02 22:26:02;;;;;;;;;68.50;48.50;;;;;;;;5036410;28;52074;-54
2022/02/02 22:28:47;;;;;;;;;68.75;49.00;;;;;;;;5038747;28;51547;-53
2022/02/02 22:31:31;;;;;;;;;74.50;52.75;;;;;;;;5040261;28;51115;-54
2022/02/02 22:34:16;;;;;;;;;70.50;51.75;;;;;;;;5041714;28;51038;-51
2022/02/02 22:37:00;;;;;;;;;65.25;49.00;;;;;;;;5038417;28;51226;-52
2022/02/02 22:39:46;;;;;;;;;72.25;53.25;;;;;;;;5038513;28;51177;-54
2022/02/02 22:42:31;;;;;;;;;72.25;52.75;;;;;;;;5038386;28;51190;-55
2022/02/02 22:45:15;;;;;;;;;70.25;50.75;;;;;;;;5038514;28;51182;-56
2022/02/02 22:48:00;;;;;;;;;73.75;52.00;;;;;;;;5037534;28;51482;-51
2022/02/02 22:50:44;;;;;;;;;69.00;50.75;;;;;;;;5043635;28;51180;-55
2022/02/02 22:53:28;;;;;;;;;65.25;46.75;;;;;;;;5059127;28;51596;-54
2022/02/02 22:56:13;;;;;;;;;72.50;52.75;;;;;;;;5058658;28;51109;-53
2022/02/02 22:58:58;;;;;;;;;70.50;52.00;;;;;;;;5059110;28;51360;-56
2022/02/02 23:01:44;;;;;;;;;71.25;49.75;;;;;;;;5058647;28;51002;-52
2022/02/02 23:04:28;;;;;;;;;74.25;51.50;;;;;;;;5059090;28;51602;-53
2022/02/02 23:07:13;;;;;;;;;70.75;51.25;;;;;;;;5058613;28;51158;-54
2022/02/02 23:09:59;;;;;;;;;68.50;50.50;;;;;;;;5058835;28;51610;-53
2022/02/02 23:12:43;;;;;;;;;53.25;33.00;;;;;;;;5058562;28;51419;-52
2022/02/02 23:15:54;;;;;;;;;69.25;49.75;;;;;;;;5058722;28;51522;-55
2022/02/02 23:18:37;;;;;;;;;70.00;48.25;;;;;;;;5050190;28;52216;-53
2022/02/02 23:21:22;;;;;;;;;62.75;44.75;;;;;;;;5058773;28;51131;-53
2022/02/02 23:24:10;;;;;;;;;70.50;52.25;;;;;;;;5058964;28;51128;-55
2022/02/02 23:26:56;;;;;;;;;74.50;53.75;;;;;;;;5058426;28;51080;-52
2022/02/02 23:29:44;;;;;;;;;68.75;50.50;;;;;;;;5058820;28;51695;-53
2022/02/02 23:32:29;;;;;;;;;70.50;51.50;;;;;;;;5058503;28;51236;-56
2022/02/02 23:35:13;;;;;;;;;71.50;52.25;;;;;;;;5058812;28;51206;-54
2022/02/02 23:37:57;;;;;;;;;68.75;49.00;;;;;;;;5058487;28;51159;-55
2022/02/02 23:41:40;;;;;;;;;64.25;48.50;;;;;;;;5058557;28;51171;-53
2022/02/02 23:44:01;;;;;;;;;74.25;56.25;;;;;;;;5058773;28;51534;-54
2022/02/02 23:46:47;;;;;;;;;73.00;52.75;;;;;;;;5058139;28;51103;-56
2022/02/02 23:49:42;;;;;;;;;73.50;54.50;;;;;;;;5058974;28;51245;-56
2022/02/02 23:52:38;;;;;;;;;71.25;53.50;;;;;;;;5058328;28;51358;-52
2022/02/02 23:55:34;;;;;;;;;71.50;54.25;;;;;;;;5058445;28;51716;-54
2022/02/02 23:58:33;;;;;;;;;72.00;54.00;;;;;;;;5059512;28;51329;-53
